Time;durP1;ratioP1;P1;durP2;ratioP2;P2;SDS_P1;SDS_P2;PMS_P1;PMS_P2;Temp;Humidity;BMP_temperature;BMP_pressure;BME280_temperature;BME280_humidity;BME280_pressure;Samples;Min_cycle;Max_cycle;Signal;HPM_P1;HPM_P2
2021/06/21 00:00:21;;;;;;;;;;;;;;;17.78;67.06;100532.50;5056284;28;19983;-64
2021/06/21 00:02:46;;;;;;;;;;;;;;;17.79;67.26;100526.44;5055206;28;19923;-64
2021/06/21 00:05:13;;;;;;;;;;;;;;;17.77;67.40;100528.16;5055797;28;19913;-64
2021/06/21 00:07:39;;;;;;;;;;;;;;;17.60;67.57;100527.84;5055922;28;20289;-64
2021/06/21 00:10:05;;;;;;;;;;;;;;;17.60;67.93;100540.00;5073908;28;19919;-64
2021/06/21 00:12:30;;;;;;;;;;;;;;;17.60;68.04;100534.78;5072134;28;20284;-64
2021/06/21 00:14:56;;;;;;;;;;;;;;;17.60;67.65;100522.63;5054590;28;19915;-65
2021/06/21 00:17:21;;;;;;;;;;;;;;;17.56;67.71;100527.75;5055878;28;19915;-64
2021/06/21 00:19:47;;;;;;;;;;;;;;;17.56;67.45;100512.16;5073869;28;20261;-64
2021/06/21 00:22:14;;;;;;;;;;;;;;;17.56;67.34;100504.31;5073390;28;20289;-64
2021/06/21 00:24:39;;;;;;;;;;;;;;;17.45;67.55;100510.19;5073671;28;20340;-65
2021/06/21 00:27:05;;;;;;;;;;;;;;;17.41;67.61;100517.94;5074016;28;19944;-64
2021/06/21 00:29:30;;;;;;;;;;;;;;;17.35;68.02;100523.88;5073269;28;20080;-64
2021/06/21 00:31:55;;;;;;;;;;;;;;;17.19;68.17;100522.72;5055248;28;19920;-64
2021/06/21 00:34:21;;;;;;;;;;;;;;;17.29;68.17;100528.97;5055637;28;19957;-64
2021/06/21 00:36:46;;;;;;;;;;;;;;;17.27;68.07;100535.88;5073450;28;20357;-64
2021/06/21 00:39:12;;;;;;;;;;;;;;;17.30;67.83;100551.53;5055550;28;19915;-64
2021/06/21 00:41:37;;;;;;;;;;;;;;;17.19;68.10;100554.81;5073066;28;19912;-64
2021/06/21 00:44:03;;;;;;;;;;;;;;;17.15;68.81;100553.00;5054987;28;20288;-64
2021/06/21 00:46:29;;;;;;;;;;;;;;;17.05;69.01;100554.53;5055400;28;19919;-65
2021/06/21 00:48:54;;;;;;;;;;;;;;;17.13;68.64;100554.69;5073247;28;19908;-64
2021/06/21 00:51:19;;;;;;;;;;;;;;;17.13;68.68;100561.63;5055225;28;19920;-65
2021/06/21 00:53:45;;;;;;;;;;;;;;;17.02;69.36;100558.78;5055025;28;19912;-64
2021/06/21 00:56:10;;;;;;;;;;;;;;;17.06;69.10;100560.59;5055615;28;19980;-64
2021/06/21 00:58:36;;;;;;;;;;;;;;;17.07;69.15;100558.06;5055015;28;19909;-64
2021/06/21 01:01:02;;;;;;;;;;;;;;;17.05;69.70;100556.25;5073107;28;19916;-64
2021/06/21 01:03:27;;;;;;;;;;;;;;;17.02;69.17;100540.56;5072986;28;19943;-64
2021/06/21 01:05:53;;;;;;;;;;;;;;;16.99;69.58;100540.50;5055324;28;20395;-64
2021/06/21 01:08:18;;;;;;;;;;;;;;;17.07;69.73;100533.75;5073281;28;19920;-64
2021/06/21 01:10:45;;;;;;;;;;;;;;;17.14;69.00;100529.56;5054725;28;20403;-64
2021/06/21 01:13:29;;;;;;;;;;;;;;;17.19;68.81;100528.78;5072913;28;19995;-65
2021/06/21 01:16:10;;;;;;;;;;;;;;;17.02;69.46;100509.34;5055171;28;19908;-64
2021/06/21 01:18:36;;;;;;;;;;;;;;;17.05;69.06;100499.00;5054603;28;20365;-64
2021/06/21 01:21:10;;;;;;;;;;;;;;;17.06;69.24;100490.34;5054452;28;19912;-65
2021/06/21 01:23:38;;;;;;;;;;;;;;;17.04;69.44;100477.31;5056154;28;20346;-64
2021/06/21 01:26:08;;;;;;;;;;;;;;;17.02;69.27;100478.13;5077045;28;20369;-64
2021/06/21 01:28:34;;;;;;;;;;;;;;;16.98;69.23;100486.72;5058772;28;19950;-64
2021/06/21 01:31:12;;;;;;;;;;;;;;;17.01;69.23;100486.78;5076768;28;19940;-64
2021/06/21 01:33:37;;;;;;;;;;;;;;;17.09;69.28;100485.22;5076781;28;19909;-65
2021/06/21 01:36:03;;;;;;;;;;;;;;;17.03;69.21;100479.88;5058620;28;19958;-64
2021/06/21 01:38:30;;;;;;;;;;;;;;;17.06;69.07;100479.94;5058447;28;19916;-64
2021/06/21 01:40:57;;;;;;;;;;;;;;;17.04;69.27;100466.03;5058286;28;19912;-64
2021/06/21 01:43:27;;;;;;;;;;;;;;;17.03;69.26;100464.28;5076779;28;19955;-64
2021/06/21 01:45:53;;;;;;;;;;;;;;;17.05;69.48;100462.56;5042114;28;19915;-65
2021/06/21 01:48:21;;;;;;;;;;;;;;;17.10;68.96;100468.75;5058336;28;19916;-65
2021/06/21 01:50:46;;;;;;;;;;;;;;;17.13;68.64;100466.19;5058491;28;19935;-65
2021/06/21 01:53:19;;;;;;;;;;;;;;;17.15;68.83;100459.31;5058381;28;20353;-65
2021/06/21 01:55:46;;;;;;;;;;;;;;;17.07;68.88;100466.09;5058492;28;19909;-65
2021/06/21 01:58:12;;;;;;;;;;;;;;;16.97;69.37;100471.91;5058163;28;19912;-64
2021/06/21 02:00:38;;;;;;;;;;;;;;;16.98;69.32;100476.31;5060620;28;19919;-65
2021/06/21 02:03:04;;;;;;;;;;;;;;;16.98;69.57;100465.91;5084066;28;19918;-64
2021/06/21 02:05:31;;;;;;;;;;;;;;;17.02;69.53;100457.31;5075063;28;19908;-65
2021/06/21 02:07:56;;;;;;;;;;;;;;;17.03;69.62;100453.88;5075054;28;19912;-65
2021/06/21 02:10:22;;;;;;;;;;;;;;;17.01;69.70;100455.56;5058442;28;19966;-65
2021/06/21 02:12:47;;;;;;;;;;;;;;;17.01;69.15;100450.34;5057525;28;19916;-64
2021/06/21 02:15:13;;;;;;;;;;;;;;;16.94;69.25;100442.41;5058281;28;19951;-65
2021/06/21 02:17:38;;;;;;;;;;;;;;;16.91;69.87;100429.34;5057888;28;20003;-65
2021/06/21 02:20:04;;;;;;;;;;;;;;;16.98;69.45;100432.09;5075767;28;19912;-67
2021/06/21 02:22:30;;;;;;;;;;;;;;;16.99;69.25;100442.53;5075967;28;19912;-65
2021/06/21 02:24:56;;;;;;;;;;;;;;;16.98;69.25;100437.28;5058057;28;19951;-67
2021/06/21 02:27:21;;;;;;;;;;;;;;;17.01;69.49;100439.94;5058131;28;20018;-66
2021/06/21 02:29:47;;;;;;;;;;;;;;;17.03;69.11;100443.47;5075476;28;19927;-67
2021/06/21 02:32:13;;;;;;;;;;;;;;;17.06;69.02;100444.41;5057789;28;20380;-65
2021/06/21 02:34:38;;;;;;;;;;;;;;;17.08;69.23;100447.03;5057304;28;19912;-66
2021/06/21 02:37:04;;;;;;;;;;;;;;;17.11;69.10;100439.28;5065058;28;21812;-65
2021/06/21 02:39:29;;;;;;;;;;;;;;;17.07;71.50;100434.88;5082803;28;19912;-64
2021/06/21 02:41:54;;;;;;;;;;;;;;;17.03;71.61;100422.66;5061418;28;20479;-65
2021/06/21 02:44:20;;;;;;;;;;;;;;;16.92;73.35;100425.88;5075111;28;19988;-65
2021/06/21 02:46:45;;;;;;;;;;;;;;;16.91;72.75;100434.53;5085975;28;19919;-64
2021/06/21 02:49:11;;;;;;;;;;;;;;;17.03;73.08;100430.44;5068061;28;19909;-65
2021/06/21 02:51:42;;;;;;;;;;;;;;;17.10;71.65;100432.31;5057001;28;19939;-64
2021/06/21 02:54:16;;;;;;;;;;;;;;;16.96;73.72;100451.97;5075157;28;19958;-64
2021/06/21 02:56:48;;;;;;;;;;;;;;;16.76;72.10;100475.84;5059469;28;19915;-64
2021/06/21 02:59:14;;;;;;;;;;;;;;;16.33;74.07;100492.22;5067991;28;19912;-64
2021/06/21 03:01:49;;;;;;;;;;;;;;;16.27;75.67;100492.06;5075173;28;19916;-64
2021/06/21 03:04:14;;;;;;;;;;;;;;;16.10;75.90;100494.28;5052165;28;20037;-64
2021/06/21 03:06:41;;;;;;;;;;;;;;;16.18;77.56;100494.47;5073731;28;20381;-65
2021/06/21 03:09:07;;;;;;;;;;;;;;;16.05;76.13;100494.16;5068601;28;19918;-65
2021/06/21 03:11:33;;;;;;;;;;;;;;;16.14;79.26;100490.03;5053479;28;19917;-65
2021/06/21 03:13:58;;;;;;;;;;;;;;;16.35;78.32;100484.47;5053505;28;19912;-64
2021/06/21 03:16:26;;;;;;;;;;;;;;;16.33;77.05;100476.63;5054617;28;19909;-65
2021/06/21 03:18:51;;;;;;;;;;;;;;;16.35;77.78;100480.13;5054591;28;19913;-64
2021/06/21 03:21:18;;;;;;;;;;;;;;;16.40;78.38;100471.56;5063464;28;19969;-65
2021/06/21 03:23:43;;;;;;;;;;;;;;;16.41;78.86;100473.31;5062017;28;19912;-65
2021/06/21 03:26:09;;;;;;;;;;;;;;;16.45;79.26;100459.56;5063768;28;19996;-65
2021/06/21 03:28:34;;;;;;;;;;;;;;;16.46;79.78;100445.75;5056804;28;19975;-65
2021/06/21 03:31:00;;;;;;;;;;;;;;;16.55;79.93;100439.84;5053246;28;20416;-65
2021/06/21 03:33:26;;;;;;;;;;;;;;;16.58;78.59;100430.41;5053389;28;20300;-65
2021/06/21 03:35:52;;;;;;;;;;;;;;;16.58;78.27;100425.19;5054505;28;19916;-65
2021/06/21 03:38:21;;;;;;;;;;;;;;;16.55;77.52;100419.03;5053120;28;19908;-65
2021/06/21 03:40:47;;;;;;;;;;;;;;;16.50;78.49;100421.56;5034437;28;19916;-65
2021/06/21 03:43:14;;;;;;;;;;;;;;;16.50;78.95;100432.81;5034205;28;19909;-66
2021/06/21 03:45:40;;;;;;;;;;;;;;;16.54;78.56;100428.59;5033554;28;19915;-65
2021/06/21 03:48:06;;;;;;;;;;;;;;;16.46;78.89;100435.34;5033718;28;20000;-66
2021/06/21 03:50:31;;;;;;;;;;;;;;;16.43;79.53;100423.13;5050971;28;19999;-65
2021/06/21 03:52:56;;;;;;;;;;;;;;;16.47;78.92;100431.91;5052394;28;19920;-65
2021/06/21 03:55:22;;;;;;;;;;;;;;;16.50;78.91;100431.97;5052781;28;19956;-65
2021/06/21 03:57:48;;;;;;;;;;;;;;;16.48;78.50;100431.06;5048597;28;20384;-64
2021/06/21 04:00:15;;;;;;;;;;;;;;;16.42;79.24;100428.28;5052428;28;20432;-65
2021/06/21 04:02:40;;;;;;;;;;;;;;;16.40;79.85;100429.97;5053898;28;20049;-65
2021/06/21 04:05:06;;;;;;;;;;;;;;;16.42;78.23;100431.78;5053797;28;20114;-65
2021/06/21 04:07:31;;;;;;;;;;;;;;;16.41;80.36;100431.72;5053089;28;19908;-65
2021/06/21 04:09:57;;;;;;;;;;;;;;;16.34;80.45;100436.78;5052354;28;19967;-65
2021/06/21 04:12:24;;;;;;;;;;;;;;;16.43;80.97;100425.75;5052484;28;20289;-65
2021/06/21 04:14:50;;;;;;;;;;;;;;;16.37;80.54;100415.22;5052458;28;19938;-65
2021/06/21 04:17:16;;;;;;;;;;;;;;;16.37;79.21;100425.59;5052325;28;20318;-65
2021/06/21 04:19:41;;;;;;;;;;;;;;;16.35;80.58;100433.34;5052261;28;19951;-65
2021/06/21 04:22:06;;;;;;;;;;;;;;;16.34;78.38;100442.00;5053614;28;19908;-65
2021/06/21 04:24:32;;;;;;;;;;;;;;;16.23;80.19;100443.47;5053684;28;20277;-65
2021/06/21 04:26:57;;;;;;;;;;;;;;;16.27;80.14;100439.25;5054708;28;19919;-65
2021/06/21 04:29:23;;;;;;;;;;;;;;;16.16;80.38;100433.78;5061293;28;20286;-65
2021/06/21 04:31:49;;;;;;;;;;;;;;;16.19;81.95;100428.66;5060700;28;20319;-65
2021/06/21 04:34:14;;;;;;;;;;;;;;;16.16;82.44;100415.59;5062703;28;19908;-65
2021/06/21 04:36:40;;;;;;;;;;;;;;;16.23;81.04;100414.88;5063043;28;20281;-66
2021/06/21 04:39:05;;;;;;;;;;;;;;;16.28;80.35;100410.66;5059368;28;20361;-65
2021/06/21 04:41:31;;;;;;;;;;;;;;;16.31;82.41;100408.13;5071942;28;20342;-65
2021/06/21 04:43:56;;;;;;;;;;;;;;;16.27;81.74;100398.53;5072329;28;19908;-65
2021/06/21 04:46:23;;;;;;;;;;;;;;;16.31;82.35;100374.34;5073390;28;19962;-65
2021/06/21 04:48:49;;;;;;;;;;;;;;;16.26;83.71;100368.19;5069808;28;19916;-66
2021/06/21 04:51:16;;;;;;;;;;;;;;;16.27;82.68;100385.53;5053262;28;19912;-66
2021/06/21 04:53:42;;;;;;;;;;;;;;;16.31;82.42;100379.56;5051930;28;19909;-65
2021/06/21 04:56:07;;;;;;;;;;;;;;;16.29;81.29;100396.84;5053144;28;19908;-65
2021/06/21 04:58:35;;;;;;;;;;;;;;;16.23;82.21;100386.31;5051644;28;19916;-65
2021/06/21 05:01:01;;;;;;;;;;;;;;;16.23;82.81;100390.66;5053556;28;19909;-65
2021/06/21 05:03:27;;;;;;;;;;;;;;;16.28;81.12;100383.81;5051953;28;19909;-65
2021/06/21 05:05:52;;;;;;;;;;;;;;;16.21;81.14;100395.78;5051891;28;19918;-65
2021/06/21 05:08:18;;;;;;;;;;;;;;;16.25;81.69;100400.22;5051817;28;19912;-65
2021/06/21 05:10:43;;;;;;;;;;;;;;;16.15;82.43;100382.66;5051420;28;20468;-64
2021/06/21 05:13:09;;;;;;;;;;;;;;;16.12;82.92;100373.09;5051660;28;20421;-65
2021/06/21 05:15:34;;;;;;;;;;;;;;;16.08;82.79;100367.78;5051572;28;20004;-65
2021/06/21 05:17:59;;;;;;;;;;;;;;;16.11;81.58;100360.06;5051895;28;19916;-65
2021/06/21 05:20:25;;;;;;;;;;;;;;;16.11;82.33;100349.66;5052637;28;19908;-65
2021/06/21 05:22:52;;;;;;;;;;;;;;;15.72;80.50;100378.22;5052867;28;19919;-64
2021/06/21 05:25:18;;;;;;;;;;;;;;;15.80;82.66;100377.50;5052885;28;20345;-65
2021/06/21 05:27:44;;;;;;;;;;;;;;;16.03;84.37;100360.75;5051517;28;19935;-65
2021/06/21 05:30:10;;;;;;;;;;;;;;;16.05;82.91;100347.81;5052652;28;20351;-65
2021/06/21 05:32:36;;;;;;;;;;;;;;;16.04;81.14;100344.34;5061121;28;19915;-65
2021/06/21 05:35:02;;;;;;;;;;;;;;;16.26;82.35;100339.59;5059836;28;19920;-65
2021/06/21 05:37:27;;;;;;;;;;;;;;;16.40;81.86;100323.41;5059952;28;20242;-65
2021/06/21 05:39:53;;;;;;;;;;;;;;;16.54;81.58;100314.19;5062230;28;19912;-65
2021/06/21 05:42:18;;;;;;;;;;;;;;;16.48;82.34;100304.53;5061982;28;20365;-65
2021/06/21 05:44:44;;;;;;;;;;;;;;;16.69;81.19;100302.31;5040815;28;19909;-65
2021/06/21 05:47:10;;;;;;;;;;;;;;;16.67;80.30;100278.03;5061780;28;20431;-65
2021/06/21 05:49:35;;;;;;;;;;;;;;;16.65;80.75;100271.06;5061685;28;19912;-65
2021/06/21 05:52:00;;;;;;;;;;;;;;;16.60;81.94;100271.81;5062891;28;19909;-66
2021/06/21 05:54:26;;;;;;;;;;;;;;;16.74;81.38;100279.88;5060326;28;19931;-66
2021/06/21 05:56:51;;;;;;;;;;;;;;;16.72;81.07;100271.19;5053543;28;20285;-66
2021/06/21 05:59:17;;;;;;;;;;;;;;;16.60;79.86;100272.72;5052482;28;20387;-66
2021/06/21 06:01:43;;;;;;;;;;;;;;;16.68;80.37;100282.38;5057061;28;19909;-65
2021/06/21 06:04:08;;;;;;;;;;;;;;;16.62;79.83;100291.81;5054898;28;19923;-65
2021/06/21 06:06:34;;;;;;;;;;;;;;;16.73;79.89;100283.34;5052110;28;19908;-66
2021/06/21 06:08:59;;;;;;;;;;;;;;;16.75;80.10;100286.84;5051090;28;20353;-66
2021/06/21 06:11:24;;;;;;;;;;;;;;;16.73;80.27;100283.34;5059537;28;19952;-66
2021/06/21 06:13:50;;;;;;;;;;;;;;;16.82;79.58;100278.28;5074798;28;19919;-66
2021/06/21 06:16:15;;;;;;;;;;;;;;;16.87;80.19;100281.84;5074573;28;19912;-66
2021/06/21 06:18:43;;;;;;;;;;;;;;;16.80;79.46;100275.66;5056078;28;19916;-66
2021/06/21 06:21:09;;;;;;;;;;;;;;;16.86;80.13;100271.41;5056855;28;19920;-66
2021/06/21 06:23:34;;;;;;;;;;;;;;;16.88;79.76;100273.19;5074751;28;20412;-65
2021/06/21 06:26:00;;;;;;;;;;;;;;;16.89;79.75;100264.53;5039807;28;20046;-67
2021/06/21 06:28:25;;;;;;;;;;;;;;;16.90;79.52;100266.28;5074179;28;20014;-66
2021/06/21 06:30:53;;;;;;;;;;;;;;;16.92;80.22;100248.09;5062243;28;20356;-66
2021/06/21 06:33:18;;;;;;;;;;;;;;;17.04;79.52;100257.88;5076754;28;19908;-67
2021/06/21 06:35:43;;;;;;;;;;;;;;;17.13;78.88;100283.19;5087856;28;19911;-67
2021/06/21 06:38:09;;;;;;;;;;;;;;;17.04;78.95;100283.91;5082052;28;20265;-67
2021/06/21 06:40:35;;;;;;;;;;;;;;;17.07;79.70;100283.94;5088005;28;19916;-66
2021/06/21 06:43:00;;;;;;;;;;;;;;;17.00;78.42;100292.50;5076043;28;19908;-67
2021/06/21 06:45:25;;;;;;;;;;;;;;;17.02;80.29;100273.47;5076244;28;20349;-67
2021/06/21 06:47:51;;;;;;;;;;;;;;;16.96;78.92;100269.84;5071917;28;20369;-67
2021/06/21 06:50:17;;;;;;;;;;;;;;;17.08;79.53;100277.91;5072674;28;20337;-66
2021/06/21 06:52:43;;;;;;;;;;;;;;;17.07;79.21;100268.34;5078232;28;20347;-67
2021/06/21 06:57:57;;;;;;;;;;;;;;;17.06;78.22;100271.78;5073479;28;20424;-67
2021/06/21 07:00:23;;;;;;;;;;;;;;;17.10;78.95;100272.72;5073536;28;20273;-67
2021/06/21 07:02:48;;;;;;;;;;;;;;;17.06;79.38;100282.19;5072853;28;19912;-67
2021/06/21 07:05:13;;;;;;;;;;;;;;;17.07;78.67;100289.16;5073304;28;19962;-67
2021/06/21 07:07:39;;;;;;;;;;;;;;;16.50;78.70;100291.59;5056560;28;19916;-67
2021/06/21 07:10:04;;;;;;;;;;;;;;;16.54;80.91;100283.00;5056582;28;19912;-66
2021/06/21 07:12:30;;;;;;;;;;;;;;;16.73;80.06;100278.13;5074329;28;19916;-65
2021/06/21 07:14:55;;;;;;;;;;;;;;;16.60;79.98;100280.50;5074986;28;20365;-65
2021/06/21 07:17:21;;;;;;;;;;;;;;;16.75;80.76;100276.44;5073894;28;19912;-65
2021/06/21 07:19:46;;;;;;;;;;;;;;;16.85;80.23;100267.94;5074524;28;20390;-65
2021/06/21 07:22:12;;;;;;;;;;;;;;;16.78;79.46;100263.47;5074548;28;19916;-65
2021/06/21 07:24:37;;;;;;;;;;;;;;;16.75;79.84;100258.22;5056411;28;20273;-65
2021/06/21 07:27:03;;;;;;;;;;;;;;;16.85;79.55;100262.75;5074846;28;19917;-65
2021/06/21 07:29:28;;;;;;;;;;;;;;;16.80;79.25;100253.97;5074500;28;20357;-68
2021/06/21 07:31:53;;;;;;;;;;;;;;;16.70;79.41;100257.28;5074725;28;19909;-68
2021/06/21 07:34:19;;;;;;;;;;;;;;;16.74;78.87;100259.06;5074259;28;20288;-66
2021/06/21 07:36:44;;;;;;;;;;;;;;;16.64;80.36;100248.50;5074392;28;19919;-66
2021/06/21 07:39:10;;;;;;;;;;;;;;;16.60;80.34;100241.50;5074222;28;19931;-66
2021/06/21 07:41:35;;;;;;;;;;;;;;;16.42;79.61;100251.53;5055958;28;19909;-67
2021/06/21 07:44:00;;;;;;;;;;;;;;;16.71;79.77;100251.22;5058293;28;19943;-66
2021/06/21 07:46:26;;;;;;;;;;;;;;;16.62;80.96;100249.31;5073502;28;20349;-66
2021/06/21 07:48:52;;;;;;;;;;;;;;;16.74;80.13;100253.88;5048488;28;20029;-67
2021/06/21 07:51:17;;;;;;;;;;;;;;;16.55;79.25;100258.75;5052294;28;20283;-67
2021/06/21 07:53:43;;;;;;;;;;;;;;;16.65;80.72;100264.97;5073517;28;19908;-66
2021/06/21 07:56:09;;;;;;;;;;;;;;;16.67;79.04;100262.41;5050946;28;19908;-68
2021/06/21 07:58:37;;;;;;;;;;;;;;;16.69;80.76;100271.13;5055226;28;19951;-67
2021/06/21 08:01:03;;;;;;;;;;;;;;;16.79;81.04;100260.03;5072563;28;19916;-67
2021/06/21 08:03:29;;;;;;;;;;;;;;;16.90;80.83;100261.09;5073749;28;19912;-67
2021/06/21 08:05:54;;;;;;;;;;;;;;;16.86;79.83;100259.28;5073590;28;20254;-67
2021/06/21 08:08:20;;;;;;;;;;;;;;;16.89;79.55;100254.13;5055863;28;19962;-67
2021/06/21 08:10:45;;;;;;;;;;;;;;;16.89;81.46;100253.25;5055917;28;19912;-68
2021/06/21 08:13:11;;;;;;;;;;;;;;;16.93;80.67;100245.53;5055682;28;19982;-67
2021/06/21 08:15:37;;;;;;;;;;;;;;;16.89;79.42;100254.13;5073396;28;20423;-68
2021/06/21 08:18:04;;;;;;;;;;;;;;;16.61;78.45;100269.25;5054993;28;19916;-67
2021/06/21 08:20:30;;;;;;;;;;;;;;;16.72;80.57;100271.19;5054187;28;20353;-68
2021/06/21 08:22:55;;;;;;;;;;;;;;;16.74;81.38;100274.69;5055558;28;19908;-67
2021/06/21 08:25:20;;;;;;;;;;;;;;;16.75;80.85;100271.22;5058843;28;19912;-67
2021/06/21 08:27:46;;;;;;;;;;;;;;;16.77;82.28;100269.53;5055281;28;20369;-67
2021/06/21 08:30:12;;;;;;;;;;;;;;;16.93;81.56;100271.56;5073389;28;19912;-66
2021/06/21 08:32:39;;;;;;;;;;;;;;;16.99;80.51;100264.72;5072857;28;20429;-66
2021/06/21 08:35:05;;;;;;;;;;;;;;;16.92;80.65;100267.19;5073446;28;20277;-66
2021/06/21 08:37:31;;;;;;;;;;;;;;;16.97;80.97;100271.59;5054459;28;19939;-67
2021/06/21 08:39:56;;;;;;;;;;;;;;;16.92;81.43;100269.81;5055382;28;20369;-66
2021/06/21 08:42:21;;;;;;;;;;;;;;;16.92;80.89;100279.31;5055157;28;20381;-66
2021/06/21 08:44:47;;;;;;;;;;;;;;;17.00;81.28;100288.19;5071893;28;19915;-66
2021/06/21 08:47:12;;;;;;;;;;;;;;;16.82;80.34;100278.28;5055274;28;19915;-66
2021/06/21 08:49:43;;;;;;;;;;;;;;;16.88;81.71;100275.81;5054550;28;19962;-65
2021/06/21 08:52:15;;;;;;;;;;;;;;;16.86;79.94;100267.09;5055967;28;20003;-66
2021/06/21 08:54:41;;;;;;;;;;;;;;;16.87;81.08;100280.97;5071958;28;19915;-66
2021/06/21 08:57:07;;;;;;;;;;;;;;;16.98;80.40;100274.28;5055347;28;20048;-64
2021/06/21 08:59:32;;;;;;;;;;;;;;;17.00;80.85;100282.09;5054181;28;20003;-66
2021/06/21 09:01:58;;;;;;;;;;;;;;;16.89;80.60;100280.16;5054901;28;20446;-65
2021/06/21 09:04:28;;;;;;;;;;;;;;;17.06;80.93;100282.19;5048718;28;19954;-66
2021/06/21 09:06:58;;;;;;;;;;;;;;;17.04;82.48;100283.91;5061515;28;19920;-66
2021/06/21 09:09:32;;;;;;;;;;;;;;;17.10;81.73;100276.19;5052010;28;19916;-66
2021/06/21 09:11:58;;;;;;;;;;;;;;;17.13;81.15;100276.25;5045861;28;19917;-67
2021/06/21 09:14:26;;;;;;;;;;;;;;;17.15;81.80;100277.16;5041004;28;19920;-66
2021/06/21 09:16:56;;;;;;;;;;;;;;;17.25;81.47;100277.28;5042789;28;20286;-66
2021/06/21 09:19:22;;;;;;;;;;;;;;;17.21;81.85;100277.25;5042154;28;19912;-66
2021/06/21 09:21:49;;;;;;;;;;;;;;;17.22;81.18;100273.78;5023940;28;20007;-66
2021/06/21 09:24:19;;;;;;;;;;;;;;;17.21;80.46;100274.63;5041093;28;19912;-65
2021/06/21 09:26:48;;;;;;;;;;;;;;;17.29;82.30;100271.28;5043477;28;20370;-66
2021/06/21 09:29:14;;;;;;;;;;;;;;;17.25;80.95;100272.09;5040612;28;19913;-66
2021/06/21 09:31:50;;;;;;;;;;;;;;;17.29;80.51;100273.88;5040035;28;20019;-65
2021/06/21 09:34:19;;;;;;;;;;;;;;;17.31;81.08;100266.97;5036541;28;20509;-66
2021/06/21 09:36:45;;;;;;;;;;;;;;;17.30;80.85;100266.13;5022198;28;19912;-66
2021/06/21 09:39:18;;;;;;;;;;;;;;;17.22;80.07;100273.78;5036316;28;20552;-67
2021/06/21 09:41:44;;;;;;;;;;;;;;;17.22;82.09;100270.31;5035280;28;19912;-66
2021/06/21 09:44:31;;;;;;;;;;;;;;;17.21;81.45;100272.03;5036597;28;19917;-66
2021/06/21 09:47:16;;;;;;;;;;;;;;;17.16;81.25;100276.28;5041489;28;19913;-66
2021/06/21 09:50:02;;;;;;;;;;;;;;;17.12;80.98;100266.69;5018456;28;19924;-66
2021/06/21 09:52:43;;;;;;;;;;;;;;;17.25;81.32;100266.88;5037898;28;19909;-66
2021/06/21 09:55:31;;;;;;;;;;;;;;;17.31;81.47;100273.06;5039348;28;19913;-65
2021/06/21 09:58:12;;;;;;;;;;;;;;;17.34;80.37;100282.63;5037681;28;20321;-65
2021/06/21 10:01:25;;;;;;;;;;;;;;;17.35;80.90;100279.19;5038795;28;19920;-66
2021/06/21 10:03:50;;;;;;;;;;;;;;;17.33;80.58;100280.88;5039355;28;19923;-68
2021/06/21 10:06:16;;;;;;;;;;;;;;;17.44;80.35;100284.53;5041605;28;19916;-69
2021/06/21 10:08:42;;;;;;;;;;;;;;;17.41;80.37;100287.09;5037824;28;20301;-69
2021/06/21 10:11:28;;;;;;;;;;;;;;;17.35;80.21;100279.19;5042611;28;19917;-69
2021/06/21 10:13:55;;;;;;;;;;;;;;;17.34;80.54;100282.63;5018710;28;19926;-69
2021/06/21 10:16:24;;;;;;;;;;;;;;;17.45;80.36;100281.06;5031779;28;19917;-69
2021/06/21 10:18:55;;;;;;;;;;;;;;;17.48;81.10;100286.31;5027548;28;20614;-69
2021/06/21 10:21:23;;;;;;;;;;;;;;;17.53;80.47;100278.59;5027258;28;19913;-68
2021/06/21 10:23:55;;;;;;;;;;;;;;;17.48;79.49;100288.94;5031537;28;20358;-70
2021/06/21 10:26:22;;;;;;;;;;;;;;;17.47;79.74;100289.78;5031559;28;19917;-69
2021/06/21 10:28:49;;;;;;;;;;;;;;;17.44;80.84;100284.53;5031543;28;19924;-69
2021/06/21 10:31:15;;;;;;;;;;;;;;;17.28;79.51;100298.16;5033181;28;20000;-69
2021/06/21 10:33:41;;;;;;;;;;;;;;;17.32;80.67;100305.16;5015345;28;19936;-69
2021/06/21 10:36:07;;;;;;;;;;;;;;;17.37;80.52;100304.41;5031889;28;19927;-69
2021/06/21 10:38:33;;;;;;;;;;;;;;;17.37;79.39;100303.50;5031717;28;19908;-69
2021/06/21 10:41:06;;;;;;;;;;;;;;;17.45;80.53;100304.50;5015214;28;20238;-67
2021/06/21 10:43:50;;;;;;;;;;;;;;;17.41;79.29;100300.09;5032258;28;19909;-67
2021/06/21 10:46:19;;;;;;;;;;;;;;;17.47;79.55;100304.53;5033090;28;19958;-67
2021/06/21 10:49:02;;;;;;;;;;;;;;;17.52;79.49;100298.56;5032198;28;19917;-67
2021/06/21 10:51:34;;;;;;;;;;;;;;;17.55;80.16;100302.06;5032731;28;19912;-67
2021/06/21 10:54:01;;;;;;;;;;;;;;;17.42;78.67;100301.84;5031888;28;19913;-67
2021/06/21 10:56:45;;;;;;;;;;;;;;;17.66;79.48;100303.09;5031322;28;20381;-67
2021/06/21 10:59:15;;;;;;;;;;;;;;;17.47;78.95;100310.63;5031109;28;19940;-67
2021/06/21 11:01:47;;;;;;;;;;;;;;;17.48;79.49;100312.38;5031911;28;19971;-66
2021/06/21 11:04:34;;;;;;;;;;;;;;;17.59;79.56;100314.28;5030176;28;19920;-68
2021/06/21 11:07:19;;;;;;;;;;;;;;;17.54;80.53;100310.75;5031348;28;19913;-69
2021/06/21 11:09:46;;;;;;;;;;;;;;;17.61;79.75;100312.59;5030313;28;19920;-67
2021/06/21 11:12:24;;;;;;;;;;;;;;;17.68;79.56;100314.44;5046988;28;20352;-67
2021/06/21 11:15:09;;;;;;;;;;;;;;;17.73;77.97;100302.34;5053839;28;19923;-66
2021/06/21 11:17:51;;;;;;;;;;;;;;;17.99;79.09;100304.44;5035439;28;20270;-67
2021/06/21 11:20:31;;;;;;;;;;;;;;;18.15;76.70;100299.44;5070587;28;20052;-67
2021/06/21 11:23:02;;;;;;;;;;;;;;;18.66;75.74;100298.31;5070720;28;19913;-66
2021/06/21 11:25:32;;;;;;;;;;;;;;;19.15;74.45;100302.28;5035993;28;20495;-67
2021/06/21 11:27:59;;;;;;;;;;;;;;;19.45;73.22;100305.13;5053492;28;19908;-67
2021/06/21 11:30:26;;;;;;;;;;;;;;;19.53;74.12;100304.28;5053484;28;19920;-67
2021/06/21 11:33:10;;;;;;;;;;;;;;;18.62;73.30;100296.53;5071449;28;20258;-67
2021/06/21 11:35:53;;;;;;;;;;;;;;;19.18;74.50;100301.44;5071901;28;19915;-68
2021/06/21 11:38:42;;;;;;;;;;;;;;;19.13;75.01;100298.78;5051486;28;19905;-68
2021/06/21 11:41:24;;;;;;;;;;;;;;;19.17;75.07;100300.53;5060565;28;19916;-66
2021/06/21 11:43:49;;;;;;;;;;;;;;;19.15;75.17;100307.50;5069438;28;19916;-66
2021/06/21 11:46:33;;;;;;;;;;;;;;;19.12;74.98;100307.47;5070903;28;19977;-67
2021/06/21 11:49:05;;;;;;;;;;;;;;;18.91;75.74;100309.00;5070737;28;19908;-68
2021/06/21 11:51:31;;;;;;;;;;;;;;;18.77;75.54;100300.16;5053203;28;19978;-66
2021/06/21 11:53:56;;;;;;;;;;;;;;;18.72;76.32;100301.84;5071095;28;19912;-65
2021/06/21 11:56:25;;;;;;;;;;;;;;;18.62;75.51;100296.53;5053318;28;20262;-68
2021/06/21 11:58:51;;;;;;;;;;;;;;;18.59;76.80;100301.72;5070688;28;19912;-66
2021/06/21 12:01:23;;;;;;;;;;;;;;;18.62;76.34;100301.75;5053236;28;19912;-66
2021/06/21 12:03:48;;;;;;;;;;;;;;;18.59;76.39;100300.81;5070639;28;19919;-66
2021/06/21 12:06:14;;;;;;;;;;;;;;;18.46;77.50;100312.84;5052984;28;19994;-67
2021/06/21 12:08:40;;;;;;;;;;;;;;;18.31;76.75;100311.81;5068309;28;19912;-66
2021/06/21 12:11:22;;;;;;;;;;;;;;;18.40;77.27;100311.06;5066036;28;19919;-67
2021/06/21 12:14:20;;;;;;;;;;;;;;;18.36;76.84;100315.34;5028448;28;19941;-67
2021/06/21 12:16:46;;;;;;;;;;;;;;;18.26;77.82;100316.09;5008171;28;19913;-67
2021/06/21 12:19:11;;;;;;;;;;;;;;;18.22;78.08;100311.69;5029189;28;20378;-65
2021/06/21 12:21:38;;;;;;;;;;;;;;;18.28;77.80;100316.97;5028175;28;20693;-67
2021/06/21 12:24:18;;;;;;;;;;;;;;;18.16;78.28;100306.41;5027950;28;19967;-66
2021/06/21 12:26:44;;;;;;;;;;;;;;;18.17;77.95;100313.38;5028793;28;19990;-67
2021/06/21 12:29:17;;;;;;;;;;;;;;;18.04;79.29;100302.78;5030415;28;19983;-66
2021/06/21 12:31:55;;;;;;;;;;;;;;;18.06;78.50;100310.63;5030750;28;20055;-65
2021/06/21 12:34:39;;;;;;;;;;;;;;;18.03;78.27;100310.59;5030710;28;19909;-67
2021/06/21 12:37:18;;;;;;;;;;;;;;;17.91;79.91;100313.88;5031622;28;19913;-66
2021/06/21 12:39:48;;;;;;;;;;;;;;;17.83;80.13;100311.16;5031421;28;20333;-66
2021/06/21 12:42:15;;;;;;;;;;;;;;;17.87;80.74;100306.88;5031849;28;19917;-66